• Join FlightAware (Why Join?)
  • Login
  • US Flag 
08:43PM EDT


 

Airport Tracker/Info


-or-


 

Live Flight TrackerFlight Track Log ✈ N483DA ✈ 22-Jun-2013 ✈ KSRQ - KSFB

Flight Track Log - Related Links

Times and Time Zones

All times are in EDT time to prevent confusion due to time zone crossing. See the N483DA flight status page for this flight to view local times or setup timezone preferences in your user account.

Time Position Orientation Groundspeed Altitude Reporting Facility
EDT Latitude Longitude Course Direction KTS MPH feet Rate Location/Type
12:13PM 27.3833 -82.5167 90° East 94 108 1,200  Level Tampa TRACON
12:14PM 27.4000 -82.4833 61° Northeast 101 116 1,800 600 Climbing Tampa TRACON
12:15PM 27.4167 -82.4667 42° Northeast 104 120 2,400 540 Climbing Tampa TRACON
12:16PM 27.4333 -82.4500 42° Northeast 106 122 2,900 420 Climbing Tampa TRACON
12:17PM 27.4667 -82.4333 24° Northeast 113 130 3,200 420 Climbing Tampa TRACON
12:18PM 27.5000 -82.4167 24° Northeast 116 133 3,700 420 Climbing Tampa TRACON
12:18PM 27.5167 -82.4000 42° Northeast 118 136 4,000 360 Climbing Tampa TRACON
12:20PM 27.5289 -82.4122 318° Northwest  Level FlightAware Approximate
12:20PM 27.5833 -82.3667 318° Northwest 118 136 4,800  Level Tampa TRACON
12:22PM 27.6167 -82.3333 42° Northeast 129 148 5,000 60 Climbing Tampa TRACON
12:22PM 27.6333 -82.3167 42° Northeast 130 150 5,000  Level Tampa TRACON
12:24PM 27.6667 -82.3000 24° Northeast 121 139 5,000  Level Tampa TRACON
12:24PM 27.7000 -82.2833 24° Northeast 118 136 5,000  Level Tampa TRACON
12:26PM 27.7333 -82.2667 24° Northeast 119 137 5,000  Level Tampa TRACON
12:27PM 27.7500 -82.2500 42° Northeast 119 137 5,000  Level Tampa TRACON
12:28PM 27.7833 -82.2167 41° Northeast 118 136 5,000  Level Tampa TRACON
12:29PM 27.8167 -82.2000 24° Northeast 120 138 5,000  Level Tampa TRACON
12:30PM 27.8333 -82.1833 41° Northeast 122 140 5,000  Level Tampa TRACON
12:31PM 27.8667 -82.1667 24° Northeast 122 140 5,000  Level Tampa TRACON
12:32PM 27.9000 -82.1333 41° Northeast 121 139 5,000  Level Tampa TRACON
12:33PM 27.9167 -82.1167 41° Northeast 118 136 5,000  Level Tampa TRACON
12:33PM 27.9500 -82.1000 24° Northeast 121 139 5,000  Level Tampa TRACON
12:34PM 27.9833 -82.0833 24° Northeast 121 139 5,000  Level Tampa TRACON
12:36PM 28.0000 -82.0667 41° Northeast 121 139 5,000  Level Tampa TRACON
12:38PM 28.0667 -82.0167 33° Northeast 117 135 5,000  Level Orlando TRACON
12:39PM 28.1000 -81.9833 41° Northeast 119 137 5,000  Level Orlando TRACON
12:40PM 28.1333 -81.9667 24° Northeast 119 137 5,000  Level Orlando TRACON
12:41PM 28.1500 -81.9500 41° Northeast 116 133 5,000  Level Orlando TRACON
12:42PM 28.1833 -81.9333 24° Northeast 117 135 5,000  Level Orlando TRACON
12:43PM 28.2167 -81.9000 41° Northeast 127 146 5,000  Level Orlando TRACON
12:44PM 28.2500 -81.8833 24° Northeast 126 145 5,000 -300 Level Orlando TRACON
12:45PM 28.2667 -81.8667 41° Northeast 125 144 4,400 -540 Descending Orlando TRACON
12:46PM 28.3000 -81.8500 24° Northeast 123 142 4,000 -240 Descending Orlando TRACON
12:47PM 28.3333 -81.8167 41° Northeast 130 150 4,000  Level Orlando TRACON
12:48PM 28.3667 -81.8000 24° Northeast 129 148 4,000  Level Orlando TRACON
12:49PM 28.3833 -81.7833 41° Northeast 125 144 4,000  Level Orlando TRACON
12:50PM 28.4167 -81.7667 24° Northeast 124 143 4,000  Level Orlando TRACON
12:51PM 28.4500 -81.7500 24° Northeast 126 145 4,000  Level Orlando TRACON
12:52PM 28.4833 -81.7167 41° Northeast 131 151 4,000  Level Orlando TRACON
12:53PM 28.5167 -81.7000 24° Northeast 125 144 4,000  Level Orlando TRACON
12:54PM 28.5500 -81.6833 24° Northeast 124 143 4,000  Level Orlando TRACON
12:55PM 28.5667 -81.6667 41° Northeast 127 146 4,000  Level Orlando TRACON
12:56PM 28.6000 -81.6333 41° Northeast 122 140 4,000  Level Orlando TRACON
12:57PM 28.6167 -81.6000 60° Northeast 123 142 4,000  Level Orlando TRACON
12:58PM 28.6500 -81.5667 41° Northeast 123 142 4,000  Level Orlando TRACON
12:59PM 28.6667 -81.5500 41° Northeast 122 140 4,000 -420 Level Orlando TRACON
01:00PM 28.7000 -81.5167 41° Northeast 129 148 3,200 -600 Descending Orlando TRACON
01:01PM 28.7167 -81.4833 60° Northeast 125 144 2,800 -540 Descending Orlando TRACON